Time;durP1;ratioP1;P1;durP2;ratioP2;P2;SDS_P1;SDS_P2;PMS_P1;PMS_P2;Temp;Humidity;BMP_temperature;BMP_pressure;BME280_temperature;BME280_humidity;BME280_pressure;Samples;Min_cycle;Max_cycle;Signal;HPM_P1;HPM_P2
2022/01/19 00:01:20;;;;;;;387.65;38.05;;;;;;;-0.71;100.00;103227.97;5276616;28;20278;-72
2022/01/19 00:03:50;;;;;;;271.00;39.13;;;;;;;-0.72;100.00;103215.69;5277823;28;20019;-72
2022/01/19 00:06:21;;;;;;;136.82;32.53;;;;;;;-0.69;100.00;103205.09;5263312;28;20045;-73
2022/01/19 00:08:52;;;;;;;171.55;33.92;;;;;;;-0.68;100.00;103184.88;5280507;28;20096;-72
2022/01/19 00:11:23;;;;;;;88.22;29.85;;;;;;;-0.68;100.00;103190.13;5274794;28;20035;-72
2022/01/19 00:13:54;;;;;;;78.72;26.65;;;;;;;-0.70;100.00;103200.72;5268640;28;20083;-72
2022/01/19 00:16:25;;;;;;;76.28;26.65;;;;;;;-0.70;100.00;103203.38;5285067;27;20023;-72
2022/01/19 00:18:55;;;;;;;112.38;28.50;;;;;;;-0.74;100.00;103214.00;5271125;28;20019;-72
2022/01/19 00:21:26;;;;;;;150.70;35.08;;;;;;;-0.81;100.00;103219.41;5270995;28;20055;-72
2022/01/19 00:23:56;;;;;;;110.85;31.70;;;;;;;-0.86;100.00;103225.69;5270871;28;20024;-72
2022/01/19 00:26:27;;;;;;;174.80;33.63;;;;;;;-0.92;100.00;103210.03;5282686;28;20023;-72
2022/01/19 00:28:59;;;;;;;213.60;34.95;;;;;;;-0.97;100.00;103193.44;5272281;28;21186;-72
2022/01/19 00:31:29;;;;;;;122.18;31.50;;;;;;;-1.00;100.00;103181.22;5284057;28;20023;-72
2022/01/19 00:34:00;;;;;;;87.53;29.92;;;;;;;-1.04;100.00;103169.00;5285010;28;20342;-73
2022/01/19 00:36:30;;;;;;;70.53;27.33;;;;;;;-1.09;100.00;103163.84;5266965;28;20024;-72
2022/01/19 00:39:01;;;;;;;89.97;31.63;;;;;;;-1.15;100.00;103145.56;5264005;28;20024;-73
2022/01/19 00:41:31;;;;;;;93.40;31.48;;;;;;;-1.18;100.00;103139.47;5277095;28;20020;-73
2022/01/19 00:44:02;;;;;;;101.72;34.40;;;;;;;-1.21;100.00;103142.16;5263724;28;20044;-73
2022/01/19 00:46:33;;;;;;;94.68;31.77;;;;;;;-1.22;100.00;103154.47;5263243;28;20033;-72
2022/01/19 00:49:03;;;;;;;108.50;34.35;;;;;;;-1.22;100.00;103158.88;5263437;28;20397;-72
2022/01/19 00:51:34;;;;;;;111.60;33.60;;;;;;;-1.20;100.00;103155.31;5270923;28;20419;-71
2022/01/19 00:54:04;;;;;;;198.38;36.95;;;;;;;-1.18;100.00;103165.81;5284398;28;20467;-71
2022/01/19 00:56:35;;;;;;;261.20;39.85;;;;;;;-1.16;100.00;103161.38;5284118;28;20024;-71
2022/01/19 00:59:05;;;;;;;329.42;37.58;;;;;;;-1.17;100.00;103159.63;5270941;28;20376;-72
2022/01/19 01:01:36;;;;;;;257.48;35.13;;;;;;;-1.17;100.00;103164.91;5284386;28;20444;-71
2022/01/19 01:04:06;;;;;;;319.40;38.28;;;;;;;-1.14;100.00;103152.53;5266021;28;20020;-71
2022/01/19 01:06:37;;;;;;;258.77;35.63;;;;;;;-1.09;100.00;103136.63;5263411;28;20098;-71
2022/01/19 01:09:08;;;;;;;279.98;39.15;;;;;;;-1.07;100.00;103117.25;5275413;28;20110;-71
2022/01/19 01:11:47;;;;;;;129.90;34.20;;;;;;;-1.03;100.00;103123.31;5276154;28;20558;-71
2022/01/19 01:16:58;;;;;;;100.63;31.30;;;;;;;-0.93;100.00;103119.56;5270998;28;20330;-71
2022/01/19 01:19:29;;;;;;;117.03;33.88;;;;;;;-0.85;100.00;103120.25;5267198;28;20517;-71
2022/01/19 01:21:59;;;;;;;266.38;45.47;;;;;;;-0.79;100.00;103113.97;5281258;28;20030;-71
2022/01/19 01:24:29;;;;;;;197.60;38.03;;;;;;;-0.77;100.00;103124.44;5278869;28;20111;-72
2022/01/19 01:27:00;;;;;;;313.42;43.25;;;;;;;-0.81;100.00;103121.03;5268511;28;20020;-71
2022/01/19 01:29:30;;;;;;;267.33;37.33;;;;;;;-0.84;100.00;103103.53;5267667;28;20122;-73
2022/01/19 01:32:01;;;;;;;207.57;37.83;;;;;;;-0.84;100.00;103100.88;5266728;28;20050;-73
2022/01/19 01:34:31;;;;;;;271.33;38.17;;;;;;;-0.86;100.00;103093.91;5281726;28;20471;-73
2022/01/19 01:37:02;;;;;;;311.30;41.92;;;;;;;-0.87;100.00;103069.31;5288339;28;20023;-74
2022/01/19 01:39:33;;;;;;;257.40;37.55;;;;;;;-0.93;100.00;103071.25;5288107;28;20503;-73
2022/01/19 01:42:21;;;;;;;292.27;40.08;;;;;;;-1.02;100.00;103064.44;5288385;28;20385;-72
2022/01/19 01:44:55;;;;;;;238.73;35.40;;;;;;;-1.07;100.00;103068.97;5269114;28;20055;-72
2022/01/19 01:47:26;;;;;;;259.98;37.88;;;;;;;-1.13;100.00;103069.09;5266957;28;20030;-71
2022/01/19 01:55:20;;;;;;;252.10;36.17;;;;;;;-1.36;100.00;103067.00;5266669;28;20024;-72
2022/01/19 01:57:51;;;;;;;136.43;33.60;;;;;;;-1.38;100.00;103061.78;5266829;28;20519;-72
2022/01/19 02:00:24;;;;;;;121.65;33.63;;;;;;;-1.39;100.00;103060.06;5267062;28;20068;-72
2022/01/19 02:02:55;;;;;;;74.45;29.73;;;;;;;-1.36;100.00;103057.34;5268125;28;20039;-72
2022/01/19 02:05:27;;;;;;;84.55;31.58;;;;;;;-1.29;100.00;103059.84;5266404;28;20504;-73
2022/01/19 02:11:29;;;;;;;199.88;36.55;;;;;;;-1.23;100.00;103038.63;5287702;28;20549;-70
2022/01/19 02:22:54;;;;;;;148.30;33.70;;;;;;;-1.38;100.00;103008.25;5287828;28;20377;-71
2022/01/19 02:25:29;;;;;;;211.70;36.38;;;;;;;-1.37;100.00;103005.56;5279624;28;20024;-70
2022/01/19 02:40:06;;;;;;;107.20;34.65;;;;;;;-1.27;100.00;102984.28;5267773;28;20080;-70
2022/01/19 02:40:12;;;;;;;87.85;34.33;;;;;;;-1.23;100.00;102986.81;5279882;28;20028;-70
2022/01/19 02:51:15;;;;;;;144.02;36.55;;;;;;;-1.23;100.00;102955.22;5268512;28;20118;-70
2022/01/19 02:53:46;;;;;;;161.18;37.80;;;;;;;-1.27;100.00;102957.97;5265907;28;20604;-70
2022/01/19 02:56:24;;;;;;;156.18;39.45;;;;;;;-1.28;100.00;102957.09;5285262;28;20023;-70
2022/01/19 02:59:05;;;;;;;195.10;42.40;;;;;;;-1.29;100.00;102957.13;5286723;28;20016;-70
2022/01/19 03:09:47;;;;;;;155.77;40.63;;;;;;;-1.26;100.00;102944.75;5286389;28;20366;-71
2022/01/19 03:12:18;;;;;;;201.95;42.35;;;;;;;-1.27;100.00;102936.88;5282730;27;20051;-71
2022/01/19 03:14:48;;;;;;;193.68;39.80;;;;;;;-1.28;100.00;102932.53;5265391;28;20454;-70
2022/01/19 03:17:19;;;;;;;262.73;43.90;;;;;;;-1.33;100.00;102922.97;5265379;28;20110;-71
2022/01/19 03:19:50;;;;;;;195.43;40.45;;;;;;;-1.41;100.00;102924.91;5265408;28;20023;-70
2022/01/19 03:22:26;;;;;;;183.48;39.60;;;;;;;-1.46;100.00;102918.91;5265119;28;20024;-70
2022/01/19 03:24:56;;;;;;;207.40;39.58;;;;;;;-1.49;100.00;102913.75;5277731;28;20031;-70
2022/01/19 03:27:27;;;;;;;205.60;38.97;;;;;;;-1.53;100.00;102898.91;5265370;28;20370;-70
2022/01/19 03:29:57;;;;;;;260.92;41.13;;;;;;;-1.59;100.00;102901.72;5268208;28;20039;-70
2022/01/19 03:32:28;;;;;;;238.88;38.78;;;;;;;-1.61;100.00;102893.84;5286054;28;20024;-70
2022/01/19 03:34:59;;;;;;;249.98;41.50;;;;;;;-1.65;100.00;102892.19;5280983;28;20051;-70
2022/01/19 03:37:30;;;;;;;233.88;41.80;;;;;;;-1.64;100.00;102898.31;5265072;28;20031;-70
2022/01/19 03:40:01;;;;;;;290.60;43.70;;;;;;;-1.63;100.00;102897.41;5283393;28;20024;-71
2022/01/19 03:42:32;;;;;;;321.63;43.08;;;;;;;-1.60;100.00;102900.84;5272635;28;20020;-71
2022/01/19 03:45:04;;;;;;;344.58;48.08;;;;;;;-1.61;100.00;102891.22;5278560;28;20058;-70
2022/01/19 03:47:41;;;;;;;206.10;40.58;;;;;;;-1.59;100.00;102888.56;5265758;28;20110;-71
2022/01/19 03:50:12;;;;;;;272.15;42.15;;;;;;;-1.59;100.00;102884.16;5276353;28;20024;-71
2022/01/19 03:52:42;;;;;;;334.45;45.45;;;;;;;-1.59;100.00;102885.91;5268399;28;20092;-70
2022/01/19 03:55:13;;;;;;;322.13;43.22;;;;;;;-1.62;100.00;102883.34;5275047;28;20385;-70
2022/01/19 03:57:44;;;;;;;300.35;44.53;;;;;;;-1.63;100.00;102871.97;5269637;28;20030;-70
2022/01/19 04:00:15;;;;;;;344.58;44.67;;;;;;;-1.62;100.00;102870.19;5285592;28;20088;-70
2022/01/19 04:02:47;;;;;;;177.40;43.00;;;;;;;-1.59;100.00;102867.50;5284909;28;20090;-71
2022/01/19 04:08:04;;;;;;;166.63;41.33;;;;;;;-1.46;100.00;102861.00;5274176;28;20032;-70
2022/01/19 04:10:35;;;;;;;114.00;37.65;;;;;;;-1.34;100.00;102860.69;5271291;28;20092;-70
2022/01/19 04:13:11;;;;;;;108.10;37.08;;;;;;;-1.18;100.00;102857.63;5274304;28;20400;-71
2022/01/19 04:15:41;;;;;;;114.68;39.25;;;;;;;-1.03;100.00;102857.22;5269957;28;20024;-71
2022/01/19 04:18:13;;;;;;;115.68;38.95;;;;;;;-0.87;100.00;102855.00;5285354;28;20369;-72
2022/01/19 04:20:48;;;;;;;122.60;39.58;;;;;;;-0.72;100.00;102851.06;5284779;28;20066;-71
2022/01/19 04:23:19;;;;;;;;;;;;;;;-0.58;100.00;102856.81;5285886;28;20020;-72
2022/01/19 04:25:49;;;;;;;120.38;35.47;;;;;;;-0.48;100.00;102855.63;5281381;28;20277;-71
2022/01/19 04:28:20;;;;;;;123.93;37.72;;;;;;;-0.35;100.00;102857.00;5284912;28;20084;-71
2022/01/19 04:30:51;;;;;;;123.60;40.22;;;;;;;-0.21;100.00;102860.97;5284994;28;20532;-71
2022/01/19 04:33:25;;;;;;;121.05;39.38;;;;;;;-0.10;100.00;102853.56;5267039;27;20024;-71
2022/01/19 04:36:17;;;;;;;134.65;38.08;;;;;;;0.01;100.00;102847.97;5264455;28;20034;-72
2022/01/19 04:39:18;;;;;;;146.55;38.47;;;;;;;0.15;100.00;102843.97;5264046;28;20031;-72
2022/01/19 04:47:31;;;;;;;125.38;37.80;;;;;;;0.43;100.00;102827.19;5285078;28;20030;-72
2022/01/19 05:06:10;;;;;;;109.40;32.92;;;;;;;1.01;100.00;102811.91;5278222;28;20432;-72
2022/01/19 05:14:19;;;;;;;108.38;31.00;;;;;;;1.28;100.00;102826.72;5263669;28;20132;-72
2022/01/19 05:16:49;;;;;;;86.47;28.80;;;;;;;1.34;100.00;102814.19;5264351;28;20055;-71
2022/01/19 05:19:20;;;;;;;89.22;29.40;;;;;;;1.37;100.00;102808.81;5284353;28;20023;-71
2022/01/19 05:21:50;;;;;;;99.57;31.92;;;;;;;1.41;100.00;102805.13;5281972;28;20089;-71
2022/01/19 05:24:21;;;;;;;82.55;27.98;;;;;;;1.45;100.00;102804.06;5273610;28;20047;-72
2022/01/19 05:26:52;;;;;;;83.22;28.05;;;;;;;1.48;100.00;102803.97;5266188;28;20050;-72
2022/01/19 05:29:22;;;;;;;83.90;28.85;;;;;;;1.50;100.00;102796.81;5274695;28;20027;-72
2022/01/19 05:31:53;;;;;;;88.80;27.48;;;;;;;1.52;100.00;102794.97;5284435;28;20380;-72
2022/01/19 05:34:23;;;;;;;80.15;26.13;;;;;;;1.54;100.00;102796.63;5283881;28;20030;-71
2022/01/19 05:36:54;;;;;;;76.85;26.38;;;;;;;1.59;100.00;102791.16;5284354;28;20016;-72
2022/01/19 05:39:24;;;;;;;80.00;27.88;;;;;;;1.62;100.00;102793.69;5283943;28;20102;-72
2022/01/19 05:41:55;;;;;;;74.53;25.17;;;;;;;1.69;100.00;102789.00;5261675;28;20096;-73
2022/01/19 05:44:25;;;;;;;81.85;26.38;;;;;;;1.71;100.00;102790.69;5262931;28;20039;-72
2022/01/19 05:46:56;;;;;;;85.03;26.67;;;;;;;1.71;100.00;102793.34;5263268;28;20012;-72
2022/01/19 05:49:26;;;;;;;80.78;27.30;;;;;;;1.75;100.00;102784.31;5262988;28;20138;-71
2022/01/19 05:51:57;;;;;;;85.18;27.25;;;;;;;1.81;100.00;102786.75;5273553;28;20024;-72
2022/01/19 05:54:27;;;;;;;79.80;26.35;;;;;;;1.84;100.00;102783.09;5270018;28;20016;-73
2022/01/19 05:56:58;;;;;;;68.35;25.60;;;;;;;1.89;100.00;102775.84;5272179;27;20020;-72
2022/01/19 05:59:29;;;;;;;79.85;26.00;;;;;;;1.90;100.00;102771.41;5282680;28;20023;-73
2022/01/19 06:01:59;;;;;;;72.70;26.45;;;;;;;1.91;100.00;102770.47;5269885;28;20107;-73
2022/01/19 06:04:30;;;;;;;75.07;25.20;;;;;;;1.97;100.00;102772.88;5287127;28;20023;-74
2022/01/19 06:07:03;;;;;;;73.97;25.73;;;;;;;1.98;100.00;102770.16;5287702;28;20441;-73
2022/01/19 06:12:19;;;;;;;66.57;24.60;;;;;;;2.08;100.00;102771.50;5266854;28;20268;-73
2022/01/19 06:14:50;;;;;;;64.85;24.70;;;;;;;2.12;100.00;102771.38;5266568;28;20028;-72
2022/01/19 06:17:20;;;;;;;60.28;23.63;;;;;;;2.14;100.00;102769.50;5285875;28;20235;-73
2022/01/19 06:19:50;;;;;;;66.32;24.48;;;;;;;2.18;100.00;102776.41;5286472;28;20087;-73
2022/01/19 06:22:21;;;;;;;64.85;23.48;;;;;;;2.22;100.00;102780.66;5267089;28;20016;-72
2022/01/19 06:24:52;;;;;;;63.45;23.33;;;;;;;2.23;100.00;102780.59;5278816;28;20052;-73
2022/01/19 06:27:22;;;;;;;63.20;21.80;;;;;;;2.24;100.00;102765.56;5266534;28;20024;-73
2022/01/19 06:29:53;;;;;;;59.40;21.40;;;;;;;2.26;100.00;102764.56;5266077;28;20020;-73
2022/01/19 06:32:23;;;;;;;60.17;23.17;;;;;;;2.31;100.00;102759.09;5275969;28;20026;-73
2022/01/19 06:34:53;;;;;;;57.35;22.48;;;;;;;2.31;100.00;102753.78;5287129;28;20020;-73
2022/01/19 06:37:24;;;;;;;60.67;22.35;;;;;;;2.40;100.00;102750.72;5287727;28;20477;-73
2022/01/19 06:39:54;;;;;;;56.20;20.95;;;;;;;2.42;100.00;102743.56;5273372;28;20166;-73
2022/01/19 06:42:25;;;;;;;58.00;22.05;;;;;;;2.46;100.00;102741.63;5275490;28;20027;-73
2022/01/19 06:44:55;;;;;;;53.95;21.67;;;;;;;2.48;100.00;102743.28;5285631;28;20039;-73
2022/01/19 06:47:26;;;;;;;51.97;21.80;;;;;;;2.52;100.00;102749.34;5286047;28;20032;-74
2022/01/19 06:49:57;;;;;;;53.05;21.15;;;;;;;2.54;100.00;102739.50;5266867;28;20034;-73
2022/01/19 06:52:27;;;;;;;51.78;18.90;;;;;;;2.54;100.00;102734.22;5280170;28;20020;-73
2022/01/19 06:54:58;;;;;;;54.80;20.05;;;;;;;2.55;100.00;102720.03;5286600;28;20643;-74
2022/01/19 06:57:28;;;;;;;55.40;20.73;;;;;;;2.54;100.00;102713.88;5271794;28;20506;-73
2022/01/19 06:59:59;;;;;;;54.83;21.42;;;;;;;2.55;100.00;102705.00;5266374;28;20532;-73
2022/01/19 07:02:30;;;;;;;48.00;20.35;;;;;;;2.56;100.00;102697.91;5266607;28;20049;-74
2022/01/19 07:05:00;;;;;;;46.25;20.23;;;;;;;2.53;100.00;102685.66;5265484;28;20406;-73
2022/01/19 07:07:31;;;;;;;57.00;20.20;;;;;;;2.55;100.00;102696.19;5265853;28;20031;-74
2022/01/19 07:10:03;;;;;;;46.25;19.42;;;;;;;2.57;100.00;102699.66;5277997;28;20024;-73
2022/01/19 07:12:34;;;;;;;46.67;19.02;;;;;;;2.59;100.00;102698.63;5265628;28;20024;-73
2022/01/19 07:15:06;;;;;;;46.97;19.27;;;;;;;2.61;100.00;102701.22;5278787;28;20053;-73
2022/01/19 07:17:37;;;;;;;50.90;19.45;;;;;;;2.58;100.00;102694.25;5286697;28;20500;-73
2022/01/19 07:20:08;;;;;;;48.33;18.77;;;;;;;2.59;100.00;102692.47;5271624;28;20076;-73
2022/01/19 07:22:38;;;;;;;48.65;20.77;;;;;;;2.63;100.00;102690.56;5277600;28;20074;-73
2022/01/19 07:25:10;;;;;;;50.08;19.83;;;;;;;2.62;100.00;102687.03;5277972;28;20020;-72
2022/01/19 07:27:41;;;;;;;54.47;20.17;;;;;;;2.62;100.00;102692.34;5276319;28;20042;-71
2022/01/19 07:30:12;;;;;;;50.95;19.08;;;;;;;2.64;100.00;102684.31;5267001;28;20485;-71
2022/01/19 07:32:43;;;;;;;49.00;20.63;;;;;;;2.65;100.00;102680.72;5265329;28;20500;-71
2022/01/19 07:35:14;;;;;;;48.60;19.70;;;;;;;2.65;100.00;102675.44;5278683;28;20080;-70
2022/01/19 07:37:45;;;;;;;55.88;20.48;;;;;;;2.64;100.00;102679.00;5265316;28;20028;-71
2022/01/19 07:40:15;;;;;;;49.78;20.83;;;;;;;2.63;100.00;102667.56;5264958;28;20065;-70
2022/01/19 07:42:46;;;;;;;54.17;20.27;;;;;;;2.66;100.00;102675.38;5264740;28;20073;-70
2022/01/19 07:45:17;;;;;;;52.92;21.55;;;;;;;2.67;100.00;102670.94;5264722;28;20043;-71
2022/01/19 07:47:47;;;;;;;54.08;21.85;;;;;;;2.67;100.00;102666.50;5264854;28;20102;-70
2022/01/19 07:50:18;;;;;;;49.33;20.92;;;;;;;2.67;100.00;102671.78;5264792;28;20069;-71
2022/01/19 07:52:48;;;;;;;52.15;20.67;;;;;;;2.70;100.00;102663.69;5267844;28;20081;-71
2022/01/19 07:55:19;;;;;;;57.58;22.98;;;;;;;2.70;100.00;102665.47;5285090;28;20308;-71
2022/01/19 07:57:51;;;;;;;54.58;22.92;;;;;;;2.72;100.00;102660.97;5284247;28;20036;-71
2022/01/19 08:00:21;;;;;;;54.75;21.25;;;;;;;2.71;100.00;102668.06;5272527;27;20080;-71
2022/01/19 08:02:52;;;;;;;66.82;22.92;;;;;;;2.72;100.00;102659.19;5287969;27;20020;-71
2022/01/19 08:05:23;;;;;;;54.05;23.52;;;;;;;2.74;100.00;102664.41;5260600;28;20052;-70
2022/01/19 08:07:53;;;;;;;55.38;22.98;;;;;;;2.73;100.00;102668.00;5283322;27;20027;-71
2022/01/19 08:10:24;;;;;;;61.78;23.60;;;;;;;2.75;100.00;102668.78;5282733;28;20032;-70
2022/01/19 08:12:54;;;;;;;51.40;21.85;;;;;;;2.77;100.00;102665.13;5283369;27;20107;-70
2022/01/19 08:15:25;;;;;;;58.50;22.08;;;;;;;2.80;100.00;102661.47;5282233;28;20035;-71
2022/01/19 08:17:55;;;;;;;54.95;21.67;;;;;;;2.78;100.00;102656.25;5282871;27;20035;-71
2022/01/19 08:20:26;;;;;;;55.17;21.88;;;;;;;2.79;100.00;102659.75;5282729;28;20019;-71
2022/01/19 08:22:56;;;;;;;46.42;20.92;;;;;;;2.80;100.00;102659.66;5283657;28;20099;-71
2022/01/19 08:25:27;;;;;;;47.15;21.88;;;;;;;2.83;100.00;102659.53;5275537;28;20020;-71
2022/01/19 08:27:57;;;;;;;48.90;20.65;;;;;;;2.84;100.00;102658.59;5275578;28;20368;-71
2022/01/19 08:30:28;;;;;;;48.38;21.30;;;;;;;2.89;100.00;102665.47;5282363;28;20307;-70
2022/01/19 08:32:58;;;;;;;49.50;20.70;;;;;;;2.90;100.00;102656.59;5282386;28;20114;-71
2022/01/19 08:35:29;;;;;;;46.05;20.20;;;;;;;2.90;100.00;102654.78;5282457;28;20050;-71
2022/01/19 08:37:59;;;;;;;50.28;20.02;;;;;;;2.93;100.00;102653.81;5268892;28;20027;-71
2022/01/19 08:40:30;;;;;;;55.00;21.23;;;;;;;2.88;100.00;102645.22;5281386;28;20118;-71
2022/01/19 08:43:01;;;;;;;57.30;20.55;;;;;;;2.88;100.00;102646.06;5282295;28;20588;-71
2022/01/19 08:45:33;;;;;;;45.42;21.42;;;;;;;2.94;100.00;102656.38;5282178;28;20023;-70
2022/01/19 08:48:04;;;;;;;50.95;19.38;;;;;;;2.98;100.00;102652.66;5276419;28;20481;-70
2022/01/19 08:50:35;;;;;;;48.72;19.83;;;;;;;2.97;100.00;102652.75;5274678;28;20030;-71
2022/01/19 08:53:05;;;;;;;49.05;19.73;;;;;;;2.96;100.00;102651.00;5275697;28;20016;-71
2022/01/19 08:55:36;;;;;;;48.13;21.05;;;;;;;2.95;100.00;102642.19;5275351;28;20533;-71
2022/01/19 08:58:07;;;;;;;46.53;20.17;;;;;;;2.92;100.00;102634.41;5282224;28;20019;-71
2022/01/19 09:00:38;;;;;;;47.33;19.08;;;;;;;2.99;100.00;102629.66;5279047;28;20373;-71
2022/01/19 09:03:09;;;;;;;50.20;20.52;;;;;;;3.02;100.00;102630.38;5273298;28;20044;-71
2022/01/19 09:05:39;;;;;;;50.65;20.83;;;;;;;3.03;100.00;102625.91;5265012;28;20065;-70
2022/01/19 09:08:11;;;;;;;50.75;20.60;;;;;;;3.02;100.00;102627.72;5282094;28;20027;-71
2022/01/19 09:10:42;;;;;;;45.53;19.88;;;;;;;3.03;100.00;102625.91;5269485;28;20430;-71
2022/01/19 09:13:12;;;;;;;52.67;21.23;;;;;;;3.04;100.00;102623.19;5270303;28;20027;-71
2022/01/19 09:15:43;;;;;;;53.17;22.30;;;;;;;3.05;100.00;102621.38;5281445;28;20020;-72
2022/01/19 09:18:13;;;;;;;53.50;23.77;;;;;;;3.05;100.00;102619.59;5268389;28;20028;-71
2022/01/19 09:20:44;;;;;;;46.50;20.90;;;;;;;3.08;100.00;102615.94;5269031;28;20033;-71
2022/01/19 09:23:15;;;;;;;49.58;21.58;;;;;;;3.16;100.00;102623.50;5267749;28;20098;-70
2022/01/19 09:25:45;;;;;;;52.53;21.65;;;;;;;3.18;100.00;102622.53;5273495;28;20024;-70
2022/01/19 09:28:16;;;;;;;49.40;20.83;;;;;;;3.18;100.00;102619.00;5282074;28;20461;-71
2022/01/19 09:30:48;;;;;;;48.65;21.58;;;;;;;3.19;100.00;102621.56;5282298;28;20030;-71
2022/01/19 09:33:20;;;;;;;45.25;21.00;;;;;;;3.21;100.00;102624.16;5264052;28;20489;-71
2022/01/19 09:36:04;;;;;;;52.60;22.65;;;;;;;3.26;100.00;102620.38;5272753;28;20133;-71
2022/01/19 09:38:37;;;;;;;47.83;20.67;;;;;;;3.24;100.00;102616.91;5262481;28;20024;-71
2022/01/19 09:41:08;;;;;;;54.05;22.50;;;;;;;3.24;100.00;102616.91;5266811;28;20085;-71
2022/01/19 09:43:40;;;;;;;49.67;21.38;;;;;;;3.28;100.00;102612.31;5285127;28;20019;-71
2022/01/19 09:46:10;;;;;;;55.78;21.85;;;;;;;3.27;100.00;102608.81;5271858;27;20079;-70
2022/01/19 09:48:41;;;;;;;45.92;20.25;;;;;;;3.27;100.00;102606.16;5280757;28;20453;-72
2022/01/19 09:51:14;;;;;;;45.15;20.83;;;;;;;3.28;100.00;102594.59;5267294;28;20079;-71
2022/01/19 09:53:47;;;;;;;45.45;21.30;;;;;;;3.30;100.00;102589.22;5275557;28;20118;-71
2022/01/19 09:56:19;;;;;;;54.03;21.40;;;;;;;3.29;100.00;102584.84;5267946;28;20416;-70
2022/01/19 09:58:50;;;;;;;48.15;21.98;;;;;;;3.32;100.00;102582.06;5266631;28;20008;-71
2022/01/19 10:01:23;;;;;;;54.35;23.48;;;;;;;3.35;100.00;102581.88;5272911;28;20405;-71
2022/01/19 10:03:53;;;;;;;56.75;23.17;;;;;;;3.34;100.00;102573.06;5271831;28;20479;-71
2022/01/19 10:06:24;;;;;;;54.58;23.10;;;;;;;3.34;100.00;102559.81;5266480;28;20035;-71
2022/01/19 10:08:56;;;;;;;48.72;22.25;;;;;;;3.33;100.00;102566.06;5278013;28;20030;-71
2022/01/19 10:17:07;;;;;;;48.88;22.20;;;;;;;3.34;100.00;102538.59;5268850;28;20032;-71
2022/01/19 10:19:53;;;;;;;50.42;23.08;;;;;;;3.30;100.00;102550.28;5280636;28;20023;-71
2022/01/19 10:22:27;;;;;;;51.97;22.38;;;;;;;3.34;100.00;102541.22;5270942;28;20073;-71
2022/01/19 10:25:02;;;;;;;50.47;21.67;;;;;;;3.39;100.00;102543.66;5266731;28;20502;-71
2022/01/19 10:27:34;;;;;;;57.67;22.70;;;;;;;3.36;100.00;102539.38;5267057;28;20111;-71
2022/01/19 10:30:05;;;;;;;50.40;22.05;;;;;;;3.41;100.00;102536.47;5267624;28;20386;-71
2022/01/19 10:32:52;;;;;;;49.28;22.83;;;;;;;3.40;100.00;102525.94;5268993;28;20028;-71
2022/01/19 10:35:25;;;;;;;53.38;22.58;;;;;;;3.44;100.00;102515.09;5275105;28;20027;-71
2022/01/19 10:38:15;;;;;;;61.97;24.77;;;;;;;3.48;100.00;102521.09;5277865;28;20024;-70
2022/01/19 10:40:55;;;;;;;67.18;26.75;;;;;;;3.53;100.00;102521.72;5271783;28;20034;-71
2022/01/19 10:43:46;;;;;;;64.30;27.17;;;;;;;3.58;100.00;102519.69;5276886;28;20270;-71
2022/01/19 10:46:34;;;;;;;64.38;25.63;;;;;;;3.61;100.00;102524.81;5266946;28;20074;-71
2022/01/19 10:49:07;;;;;;;49.20;24.15;;;;;;;3.71;100.00;102531.34;5277209;28;20082;-71
2022/01/19 10:51:45;;;;;;;53.33;22.77;;;;;;;3.76;100.00;102515.19;5272538;28;20032;-71
2022/01/19 10:54:19;;;;;;;55.20;22.27;;;;;;;3.74;100.00;102506.47;5277535;28;20024;-71
2022/01/19 10:56:55;;;;;;;53.40;21.85;;;;;;;3.78;100.00;102514.19;5264651;28;20099;-71
2022/01/19 10:59:29;;;;;;;45.35;20.92;;;;;;;3.86;100.00;102519.91;5263114;28;20364;-71
2022/01/19 11:02:02;;;;;;;61.95;23.65;;;;;;;3.93;100.00;102516.97;5263542;28;20077;-71
2022/01/19 11:04:37;;;;;;;51.88;24.15;;;;;;;3.98;100.00;102518.44;5274440;28;20220;-71
2022/01/19 11:07:12;;;;;;;50.30;23.60;;;;;;;4.00;100.00;102518.34;5265467;28;20034;-71
2022/01/19 11:12:40;;;;;;;59.08;24.08;;;;;;;4.08;100.00;102511.69;5264324;28;20020;-71
2022/01/19 11:15:13;;;;;;;50.13;22.90;;;;;;;4.14;100.00;102505.16;5265027;28;20028;-71
2022/01/19 11:17:44;;;;;;;53.78;22.40;;;;;;;4.17;100.00;102499.69;5282745;28;20096;-71
2022/01/19 11:20:19;;;;;;;50.75;21.65;;;;;;;4.13;100.00;102495.50;5265524;28;20032;-71
2022/01/19 11:23:13;;;;;;;47.75;22.55;;;;;;;4.16;100.00;102490.00;5263055;28;20020;-71
2022/01/19 11:26:01;;;;;;;48.58;21.45;;;;;;;4.09;100.00;102491.28;5264229;28;20481;-71
2022/01/19 11:28:35;;;;;;;45.58;19.95;;;;;;;4.15;100.00;102491.78;5268162;28;20430;-71
2022/01/19 11:31:11;;;;;;;52.67;22.75;;;;;;;4.19;100.00;102479.22;5262874;28;20031;-71
2022/01/19 11:33:43;;;;;;;46.92;21.50;;;;;;;4.19;100.00;102473.03;5269832;28;20477;-71
2022/01/19 11:36:29;;;;;;;49.50;22.48;;;;;;;4.18;100.00;102472.19;5266474;28;20086;-71
2022/01/19 11:39:20;;;;;;;49.28;21.40;;;;;;;4.19;100.00;102476.56;5266888;28;20034;-71
2022/01/19 11:42:19;;;;;;;51.03;22.27;;;;;;;4.17;100.00;102462.50;5263665;28;20024;-71
2022/01/19 11:44:51;;;;;;;49.40;20.73;;;;;;;4.20;100.00;102453.50;5267981;28;20012;-71
2022/01/19 11:50:20;;;;;;;50.25;22.23;;;;;;;4.21;100.00;102434.81;5272015;28;20032;-71
2022/01/19 11:52:53;;;;;;;56.45;22.75;;;;;;;4.22;100.00;102441.84;5273944;28;20036;-71
2022/01/19 11:55:26;;;;;;;52.17;22.20;;;;;;;4.19;100.00;102433.19;5261862;28;20405;-71
2022/01/19 11:58:19;;;;;;;53.25;21.58;;;;;;;4.18;100.00;102434.16;5272018;28;20035;-71
2022/01/19 12:00:52;;;;;;;47.30;21.70;;;;;;;4.20;100.00;102418.97;5278482;28;20031;-71
2022/01/19 12:03:42;;;;;;;52.88;23.52;;;;;;;4.21;100.00;102424.19;5279824;28;20020;-71
2022/01/19 12:06:30;;;;;;;57.58;23.50;;;;;;;4.24;100.00;102417.84;5268928;28;20375;-71
2022/01/19 12:09:01;;;;;;;52.72;25.08;;;;;;;4.28;100.00;102414.94;5267999;28;20511;-71
2022/01/19 12:11:34;;;;;;;58.20;22.88;;;;;;;4.29;100.00;102411.31;5269402;28;20036;-71
2022/01/19 12:14:12;;;;;;;46.75;22.05;;;;;;;4.35;100.00;102399.50;5278427;28;20020;-71
2022/01/19 12:17:26;;;;;;;58.75;25.20;;;;;;;4.42;100.00;102390.22;5281345;28;20478;-71
2022/01/19 12:20:01;;;;;;;54.88;22.58;;;;;;;4.41;100.00;102392.00;5268088;28;20039;-71
2022/01/19 12:22:34;;;;;;;53.22;22.92;;;;;;;4.51;100.00;102380.84;5267871;28;20023;-71
2022/01/19 12:25:08;;;;;;;50.33;24.20;;;;;;;4.50;100.00;102366.72;5271142;28;20108;-71
2022/01/19 12:27:46;;;;;;;57.22;24.05;;;;;;;4.62;100.00;102367.81;5272870;28;20047;-71
2022/01/19 12:30:18;;;;;;;53.53;21.98;;;;;;;4.65;100.00;102370.28;5266927;28;20046;-71
2022/01/19 12:32:51;;;;;;;50.40;22.80;;;;;;;4.74;100.00;102364.41;5264479;28;20540;-71
2022/01/19 12:35:37;;;;;;;50.97;23.65;;;;;;;4.85;100.00;102361.97;5264630;28;20085;-71
2022/01/19 12:38:23;;;;;;;57.78;24.05;;;;;;;4.87;100.00;102351.22;5264600;28;20020;-71
2022/01/19 12:40:56;;;;;;;;;;;;;;;4.91;100.00;102352.75;5264373;28;20493;-71
2022/01/19 12:43:30;;;;;;;49.85;22.48;;;;;;;4.92;100.00;102352.69;5264149;28;19908;-71
2022/01/19 12:46:05;;;;;;;50.05;22.10;;;;;;;4.79;100.00;102346.38;5277051;28;20035;-71
2022/01/19 12:48:39;;;;;;;57.25;23.08;;;;;;;4.85;100.00;102343.34;5271603;28;20058;-71
2022/01/19 12:51:40;;;;;;;51.78;21.63;;;;;;;4.86;100.00;102352.16;5283579;28;20477;-71
2022/01/19 12:54:13;;;;;;;53.33;22.95;;;;;;;4.89;100.00;102342.22;5275428;28;20394;-71
2022/01/19 12:56:59;;;;;;;52.40;22.38;;;;;;;4.75;100.00;102342.19;5275094;28;20031;-72
2022/01/19 12:59:31;;;;;;;53.83;22.38;;;;;;;4.73;100.00;102329.94;5275658;28;20035;-71
2022/01/19 13:02:03;;;;;;;53.45;22.08;;;;;;;4.69;100.00;102334.59;5277548;28;20081;-71